Durham — WDF3868 — position and weather

sailwx.info

Track history (hours):
 
Tides and Currents Weather Stations Pressure Air Temp Water Temp Dewpoint Dewpoint Depression Visibility Wind Speed Wind Dir Waves Ship Positions

Durham

Owner: KEN'S BOOMING & BOAT SERVICE, INC., BAYONNE, NJ. More information available from US FCC via Universal Licensing System and Coast Guard Vessel Documentation Center.

Last reported at 2017-Apr-26 19:02 UTC. Time now 2017-Apr-27 16:45 UTC.
Position N 40°39' W 074°07'.

Length 18 m.

MMSI: 367444950.

Date/timePositionNaut miles runAvg speedWind from/ knotsBaromVisibWave heightAir tempDewpointWater temp
2017-Apr-26 19:02N 40°39' W 074°07'0 0.2
2017-Apr-26 19:00N 40°39' W 074°07'3 5.2
2017-Apr-26 18:30N 40°40' W 074°04'3 5.2
2017-Apr-26 18:00N 40°42' W 074°02'0 0.1
2017-Apr-26 17:30N 40°42' W 074°02'0 0.0
2017-Apr-26 17:00N 40°42' W 074°02'0 0.0
2017-Apr-26 16:30N 40°42' W 074°02'0 0.0
2017-Apr-26 16:00N 40°42' W 074°02'0 0.7
2017-Apr-26 15:30N 40°42' W 074°02'1 1.6
2017-Apr-26 15:00N 40°43' W 074°03'0 0.0
2017-Apr-26 14:30N 40°43' W 074°03'0 0.0
2017-Apr-26 13:30N 40°43' W 074°03'0 0.0
2017-Apr-26 13:00N 40°43' W 074°03'1 2.2
2017-Apr-26 12:30N 40°42' W 074°02'3 6.9
2017-Apr-26 12:00N 40°39' W 074°05'2 3.3
2017-Apr-26 11:30N 40°39' W 074°07'0 0.0
2017-Apr-25 01:08N 40°39' W 074°07'0 0.0
2017-Apr-25 01:00N 40°39' W 074°07'2 4.7
2017-Apr-25 00:30N 40°40' W 074°04'4 7.8
2017-Apr-25 00:00N 40°42' W 074°00'1 2.8
2017-Apr-24 23:30N 40°42' W 073°58'0 0.0
2017-Apr-24 23:00N 40°42' W 073°58'2 5.0
2017-Apr-24 22:30N 40°41' W 074°01'3 6.7
2017-Apr-24 22:00N 40°39' W 074°05'3 5.1
2017-Apr-24 21:30N 40°39' W 074°08'1 2.8
2017-Apr-24 21:00N 40°40' W 074°09'1 2.6
2017-Apr-24 20:29N 40°41' W 074°08'2 3.8
2017-Apr-24 19:59N 40°43' W 074°07'1 1.5
2017-Apr-24 19:30N 40°44' W 074°07'0 0.0
2017-Apr-24 18:57N 40°44' W 074°07'0 0.0
2017-Apr-24 18:28N 40°44' W 074°07'3 5.7
2017-Apr-24 18:00N 40°41' W 074°08'2 4.6
2017-Apr-24 17:29N 40°39' W 074°08'  
2017-Apr-19 16:49N 40°39' W 074°07'1 4.3
2017-Apr-19 16:30N 40°39' W 074°05'1 1.7
2017-Apr-19 16:00N 40°40' W 074°05'0 0.0
2017-Apr-18 18:50N 40°40' W 074°05'0 0.0
2017-Apr-18 18:30N 40°40' W 074°05'0 0.0
2017-Apr-18 18:00N 40°40' W 074°05'0 0.0
2017-Apr-18 17:29N 40°40' W 074°05'0 0.0
2017-Apr-18 17:00N 40°40' W 074°05'0 0.0
2017-Apr-18 16:30N 40°40' W 074°05'0 0.0
2017-Apr-18 16:00N 40°40' W 074°05'0 0.0
2017-Apr-18 15:30N 40°40' W 074°05'0 0.0
2017-Apr-18 15:00N 40°40' W 074°05'0 0.0
2017-Apr-18 14:00N 40°40' W 074°05'0 0.0
2017-Apr-18 13:30N 40°40' W 074°05'0 0.0
2017-Apr-18 13:00N 40°40' W 074°05'0 0.0
2017-Apr-18 01:54N 40°40' W 074°05'0 0.0
2017-Apr-18 01:28N 40°40' W 074°05'0 0.0
2017-Apr-18 00:59N 40°40' W 074°05'0 0.0
2017-Apr-18 00:30N 40°40' W 074°05'0 0.0
2017-Apr-18 00:00N 40°40' W 074°05'0 0.0
2017-Apr-17 23:28N 40°40' W 074°05'0 0.0
2017-Apr-17 23:00N 40°40' W 074°05'0 0.0
2017-Apr-17 22:29N 40°40' W 074°05'0 0.0
2017-Apr-17 22:00N 40°40' W 074°05'0 0.0
2017-Apr-17 21:30N 40°40' W 074°05'0 0.0
2017-Apr-17 21:00N 40°40' W 074°05'0 0.0
2017-Apr-17 20:30N 40°40' W 074°05'0 0.0
2017-Apr-17 20:00N 40°40' W 074°05'0 0.0
2017-Apr-17 19:30N 40°40' W 074°05'0 0.0
2017-Apr-17 19:00N 40°40' W 074°05'0 0.0
2017-Apr-17 18:30N 40°40' W 074°05'0 0.0
2017-Apr-17 18:00N 40°40' W 074°05'0 0.0
2017-Apr-17 17:30N 40°40' W 074°05'0 0.0
2017-Apr-17 17:00N 40°40' W 074°05'0 0.0
2017-Apr-17 16:30N 40°40' W 074°05'0 0.0
2017-Apr-17 16:00N 40°40' W 074°05'0 0.0
2017-Apr-17 15:30N 40°40' W 074°05'0 0.0
2017-Apr-17 15:00N 40°40' W 074°05'0 0.0
2017-Apr-17 14:30N 40°40' W 074°05'1 1.5
2017-Apr-17 13:30N 40°39' W 074°07'  
Track history (hours):
 
Tides and Currents Weather Stations Pressure Air Temp Water Temp Dewpoint Dewpoint Depression Visibility Wind Speed Wind Dir Waves Ship Positions

Durham

Owner: KEN'S BOOMING & BOAT SERVICE, INC., BAYONNE, NJ. More information available from US FCC via Universal Licensing System and Coast Guard Vessel Documentation Center.

Last reported at 2017-Apr-26 19:02 UTC. Time now 2017-Apr-27 16:45 UTC.
Position N 40°39' W 074°07'.

Length 18 m.

MMSI: 367444950.

Date/timePositionNaut miles runAvg speedWind from/ knotsBaromVisibWave heightAir tempDewpointWater temp
2017-Apr-26 19:02N 40°39' W 074°07'0 0.2
2017-Apr-26 19:00N 40°39' W 074°07'3 5.2
2017-Apr-26 18:30N 40°40' W 074°04'3 5.2
2017-Apr-26 18:00N 40°42' W 074°02'0 0.1
2017-Apr-26 17:30N 40°42' W 074°02'0 0.0
2017-Apr-26 17:00N 40°42' W 074°02'0 0.0
2017-Apr-26 16:30N 40°42' W 074°02'0 0.0
2017-Apr-26 16:00N 40°42' W 074°02'0 0.7
2017-Apr-26 15:30N 40°42' W 074°02'1 1.6
2017-Apr-26 15:00N 40°43' W 074°03'0 0.0
2017-Apr-26 14:30N 40°43' W 074°03'0 0.0
2017-Apr-26 13:30N 40°43' W 074°03'0 0.0
2017-Apr-26 13:00N 40°43' W 074°03'1 2.2
2017-Apr-26 12:30N 40°42' W 074°02'3 6.9
2017-Apr-26 12:00N 40°39' W 074°05'2 3.3
2017-Apr-26 11:30N 40°39' W 074°07'0 0.0
2017-Apr-25 01:08N 40°39' W 074°07'0 0.0
2017-Apr-25 01:00N 40°39' W 074°07'2 4.7
2017-Apr-25 00:30N 40°40' W 074°04'4 7.8
2017-Apr-25 00:00N 40°42' W 074°00'1 2.8
2017-Apr-24 23:30N 40°42' W 073°58'0 0.0
2017-Apr-24 23:00N 40°42' W 073°58'2 5.0
2017-Apr-24 22:30N 40°41' W 074°01'3 6.7
2017-Apr-24 22:00N 40°39' W 074°05'3 5.1
2017-Apr-24 21:30N 40°39' W 074°08'1 2.8
2017-Apr-24 21:00N 40°40' W 074°09'1 2.6
2017-Apr-24 20:29N 40°41' W 074°08'2 3.8
2017-Apr-24 19:59N 40°43' W 074°07'1 1.5
2017-Apr-24 19:30N 40°44' W 074°07'0 0.0
2017-Apr-24 18:57N 40°44' W 074°07'0 0.0
2017-Apr-24 18:28N 40°44' W 074°07'3 5.7
2017-Apr-24 18:00N 40°41' W 074°08'2 4.6
2017-Apr-24 17:29N 40°39' W 074°08'  
2017-Apr-19 16:49N 40°39' W 074°07'1 4.3
2017-Apr-19 16:30N 40°39' W 074°05'1 1.7
2017-Apr-19 16:00N 40°40' W 074°05'0 0.0
2017-Apr-18 18:50N 40°40' W 074°05'0 0.0
2017-Apr-18 18:30N 40°40' W 074°05'0 0.0
2017-Apr-18 18:00N 40°40' W 074°05'0 0.0
2017-Apr-18 17:29N 40°40' W 074°05'0 0.0
2017-Apr-18 17:00N 40°40' W 074°05'0 0.0
2017-Apr-18 16:30N 40°40' W 074°05'0 0.0
2017-Apr-18 16:00N 40°40' W 074°05'0 0.0
2017-Apr-18 15:30N 40°40' W 074°05'0 0.0
2017-Apr-18 15:00N 40°40' W 074°05'0 0.0
2017-Apr-18 14:00N 40°40' W 074°05'0 0.0
2017-Apr-18 13:30N 40°40' W 074°05'0 0.0
2017-Apr-18 13:00N 40°40' W 074°05'0 0.0
2017-Apr-18 01:54N 40°40' W 074°05'0 0.0
2017-Apr-18 01:28N 40°40' W 074°05'0 0.0
2017-Apr-18 00:59N 40°40' W 074°05'0 0.0
2017-Apr-18 00:30N 40°40' W 074°05'0 0.0
2017-Apr-18 00:00N 40°40' W 074°05'0 0.0
2017-Apr-17 23:28N 40°40' W 074°05'0 0.0
2017-Apr-17 23:00N 40°40' W 074°05'0 0.0
2017-Apr-17 22:29N 40°40' W 074°05'0 0.0
2017-Apr-17 22:00N 40°40' W 074°05'0 0.0
2017-Apr-17 21:30N 40°40' W 074°05'0 0.0
2017-Apr-17 21:00N 40°40' W 074°05'0 0.0
2017-Apr-17 20:30N 40°40' W 074°05'0 0.0
2017-Apr-17 20:00N 40°40' W 074°05'0 0.0
2017-Apr-17 19:30N 40°40' W 074°05'0 0.0
2017-Apr-17 19:00N 40°40' W 074°05'0 0.0
2017-Apr-17 18:30N 40°40' W 074°05'0 0.0
2017-Apr-17 18:00N 40°40' W 074°05'0 0.0
2017-Apr-17 17:30N 40°40' W 074°05'0 0.0
2017-Apr-17 17:00N 40°40' W 074°05'0 0.0
2017-Apr-17 16:30N 40°40' W 074°05'0 0.0
2017-Apr-17 16:00N 40°40' W 074°05'0 0.0
2017-Apr-17 15:30N 40°40' W 074°05'0 0.0
2017-Apr-17 15:00N 40°40' W 074°05'0 0.0
2017-Apr-17 14:30N 40°40' W 074°05'1 1.5
2017-Apr-17 13:30N 40°39' W 074°07'  

Dump ship's entire track history